sensor_id;sensor_type;location;lat;lon;timestamp;pressure;altitude;pressure_sealevel;temperature
69530;BMP180;56727;47.188;8.840;2023-08-30T00:01:04;96454.80;;;18.90
69530;BMP180;56727;47.188;8.840;2023-08-30T00:03:35;96451.80;;;18.86
69530;BMP180;56727;47.188;8.840;2023-08-30T00:06:06;96455.80;;;18.86
69530;BMP180;56727;47.188;8.840;2023-08-30T00:08:33;96451.80;;;18.86
69530;BMP180;56727;47.188;8.840;2023-08-30T00:11:00;96454.80;;;18.84
69530;BMP180;56727;47.188;8.840;2023-08-30T00:13:30;96453.20;;;19.50
69530;BMP180;56727;47.188;8.840;2023-08-30T00:15:59;96453.20;;;19.22
69530;BMP180;56727;47.188;8.840;2023-08-30T00:18:25;96454.00;;;20.10
69530;BMP180;56727;47.188;8.840;2023-08-30T00:20:52;96445.80;;;20.58
69530;BMP180;56727;47.188;8.840;2023-08-30T00:23:19;96443.80;;;20.82
69530;BMP180;56727;47.188;8.840;2023-08-30T00:25:46;96441.40;;;20.54
69530;BMP180;56727;47.188;8.840;2023-08-30T00:28:12;96444.00;;;19.68
69530;BMP180;56727;47.188;8.840;2023-08-30T00:30:39;96447.60;;;19.20
69530;BMP180;56727;47.188;8.840;2023-08-30T00:33:05;96444.40;;;19.10
69530;BMP180;56727;47.188;8.840;2023-08-30T00:35:32;96444.80;;;18.92
69530;BMP180;56727;47.188;8.840;2023-08-30T00:37:59;96444.20;;;18.82
69530;BMP180;56727;47.188;8.840;2023-08-30T00:40:26;96441.00;;;18.80
69530;BMP180;56727;47.188;8.840;2023-08-30T00:42:52;96442.20;;;18.76
69530;BMP180;56727;47.188;8.840;2023-08-30T00:45:19;96437.40;;;19.82
69530;BMP180;56727;47.188;8.840;2023-08-30T00:47:46;96431.60;;;20.32
69530;BMP180;56727;47.188;8.840;2023-08-30T00:50:13;96421.00;;;20.56
69530;BMP180;56727;47.188;8.840;2023-08-30T00:52:41;96428.00;;;20.70
69530;BMP180;56727;47.188;8.840;2023-08-30T00:55:09;96425.20;;;20.24
69530;BMP180;56727;47.188;8.840;2023-08-30T00:57:37;96430.60;;;19.48
69530;BMP180;56727;47.188;8.840;2023-08-30T01:00:06;96428.40;;;20.24
69530;BMP180;56727;47.188;8.840;2023-08-30T01:02:33;96425.80;;;20.66
69530;BMP180;56727;47.188;8.840;2023-08-30T01:05:02;96421.80;;;20.86
69530;BMP180;56727;47.188;8.840;2023-08-30T01:07:28;96415.00;;;20.86
69530;BMP180;56727;47.188;8.840;2023-08-30T01:09:55;96420.80;;;19.80
69530;BMP180;56727;47.188;8.840;2023-08-30T01:12:33;96428.80;;;19.30
69530;BMP180;56727;47.188;8.840;2023-08-30T01:18:26;96411.40;;;19.74
69530;BMP180;56727;47.188;8.840;2023-08-30T01:20:56;96426.00;;;20.30
69530;BMP180;56727;47.188;8.840;2023-08-30T01:23:40;96426.80;;;19.60
69530;BMP180;56727;47.188;8.840;2023-08-30T01:26:20;96421.00;;;20.28
69530;BMP180;56727;47.188;8.840;2023-08-30T01:28:51;96422.40;;;19.60
69530;BMP180;56727;47.188;8.840;2023-08-30T01:31:20;96421.00;;;19.30
69530;BMP180;56727;47.188;8.840;2023-08-30T01:33:47;96425.60;;;19.12
69530;BMP180;56727;47.188;8.840;2023-08-30T01:36:15;96417.40;;;19.62
69530;BMP180;56727;47.188;8.840;2023-08-30T01:38:43;96411.20;;;20.10
69530;BMP180;56727;47.188;8.840;2023-08-30T01:41:10;96411.40;;;19.50
69530;BMP180;56727;47.188;8.840;2023-08-30T01:43:37;96412.40;;;19.30
69530;BMP180;56727;47.188;8.840;2023-08-30T01:46:06;96413.40;;;19.22
69530;BMP180;56727;47.188;8.840;2023-08-30T01:48:35;96414.20;;;19.24
69530;BMP180;56727;47.188;8.840;2023-08-30T01:51:02;96411.00;;;20.12
69530;BMP180;56727;47.188;8.840;2023-08-30T01:53:30;96408.80;;;20.60
69530;BMP180;56727;47.188;8.840;2023-08-30T01:55:58;96408.20;;;20.78
69530;BMP180;56727;47.188;8.840;2023-08-30T01:58:25;96406.40;;;20.86
69530;BMP180;56727;47.188;8.840;2023-08-30T02:00:53;96408.60;;;19.98
69530;BMP180;56727;47.188;8.840;2023-08-30T02:03:19;96408.00;;;19.40
69530;BMP180;56727;47.188;8.840;2023-08-30T02:06:32;96411.80;;;19.14
69530;BMP180;56727;47.188;8.840;2023-08-30T02:09:27;96412.60;;;19.26
69530;BMP180;56727;47.188;8.840;2023-08-30T02:11:59;96411.20;;;19.38
69530;BMP180;56727;47.188;8.840;2023-08-30T02:14:28;96412.40;;;19.26
69530;BMP180;56727;47.188;8.840;2023-08-30T02:16:55;96403.60;;;19.10
69530;BMP180;56727;47.188;8.840;2023-08-30T02:19:23;96398.60;;;19.00
69530;BMP180;56727;47.188;8.840;2023-08-30T02:21:50;96401.20;;;19.00
69530;BMP180;56727;47.188;8.840;2023-08-30T02:24:17;96401.60;;;18.90
69530;BMP180;56727;47.188;8.840;2023-08-30T02:26:43;96404.60;;;18.80
69530;BMP180;56727;47.188;8.840;2023-08-30T02:29:10;96399.80;;;18.80
69530;BMP180;56727;47.188;8.840;2023-08-30T02:31:36;96395.60;;;18.74
69530;BMP180;56727;47.188;8.840;2023-08-30T02:34:03;96396.20;;;18.66
69530;BMP180;56727;47.188;8.840;2023-08-30T02:36:30;96389.60;;;18.60
69530;BMP180;56727;47.188;8.840;2023-08-30T02:38:56;96388.80;;;18.60
69530;BMP180;56727;47.188;8.840;2023-08-30T02:41:23;96391.40;;;18.60
69530;BMP180;56727;47.188;8.840;2023-08-30T02:43:49;96393.00;;;18.60
69530;BMP180;56727;47.188;8.840;2023-08-30T02:46:16;96388.80;;;18.80
69530;BMP180;56727;47.188;8.840;2023-08-30T02:48:42;96384.20;;;19.80
69530;BMP180;56727;47.188;8.840;2023-08-30T02:51:09;96378.80;;;20.26
69530;BMP180;56727;47.188;8.840;2023-08-30T02:53:35;96383.00;;;19.74
69530;BMP180;56727;47.188;8.840;2023-08-30T02:56:02;96381.60;;;19.10
69530;BMP180;56727;47.188;8.840;2023-08-30T02:58:28;96385.00;;;18.86
69530;BMP180;56727;47.188;8.840;2023-08-30T03:00:55;96381.00;;;18.70
69530;BMP180;56727;47.188;8.840;2023-08-30T03:03:21;96380.40;;;18.66
69530;BMP180;56727;47.188;8.840;2023-08-30T03:05:48;96378.20;;;18.60
69530;BMP180;56727;47.188;8.840;2023-08-30T03:08:14;96382.20;;;18.50
69530;BMP180;56727;47.188;8.840;2023-08-30T03:10:41;96375.60;;;18.50
69530;BMP180;56727;47.188;8.840;2023-08-30T03:13:07;96374.60;;;18.42
69530;BMP180;56727;47.188;8.840;2023-08-30T03:15:34;96377.40;;;18.40
69530;BMP180;56727;47.188;8.840;2023-08-30T03:18:01;96376.20;;;18.40
69530;BMP180;56727;47.188;8.840;2023-08-30T03:20:27;96378.60;;;18.40
69530;BMP180;56727;47.188;8.840;2023-08-30T03:22:57;96381.60;;;18.50
69530;BMP180;56727;47.188;8.840;2023-08-30T03:25:30;96377.80;;;18.50
69530;BMP180;56727;47.188;8.840;2023-08-30T03:27:56;96373.60;;;18.50
69530;BMP180;56727;47.188;8.840;2023-08-30T03:30:23;96375.60;;;18.50
69530;BMP180;56727;47.188;8.840;2023-08-30T03:32:49;96372.00;;;18.50
69530;BMP180;56727;47.188;8.840;2023-08-30T03:35:16;96372.60;;;18.50
69530;BMP180;56727;47.188;8.840;2023-08-30T03:37:43;96369.80;;;18.50
69530;BMP180;56727;47.188;8.840;2023-08-30T03:40:11;96371.60;;;18.50
69530;BMP180;56727;47.188;8.840;2023-08-30T03:42:38;96372.80;;;18.48
69530;BMP180;56727;47.188;8.840;2023-08-30T03:45:06;96369.00;;;19.48
69530;BMP180;56727;47.188;8.840;2023-08-30T03:47:33;96369.80;;;19.96
69530;BMP180;56727;47.188;8.840;2023-08-30T03:49:59;96366.20;;;20.20
69530;BMP180;56727;47.188;8.840;2023-08-30T03:52:26;96369.60;;;19.60
69530;BMP180;56727;47.188;8.840;2023-08-30T03:54:53;96369.80;;;19.00
69530;BMP180;56727;47.188;8.840;2023-08-30T03:57:19;96378.20;;;18.70
69530;BMP180;56727;47.188;8.840;2023-08-30T03:59:46;96383.60;;;18.56
69530;BMP180;56727;47.188;8.840;2023-08-30T04:02:12;96383.00;;;18.54
69530;BMP180;56727;47.188;8.840;2023-08-30T04:04:39;96375.60;;;18.50
69530;BMP180;56727;47.188;8.840;2023-08-30T04:07:05;96372.00;;;18.50
69530;BMP180;56727;47.188;8.840;2023-08-30T04:09:32;96371.80;;;18.46
69530;BMP180;56727;47.188;8.840;2023-08-30T04:11:58;96378.40;;;18.40
69530;BMP180;56727;47.188;8.840;2023-08-30T04:14:26;96380.20;;;18.40
69530;BMP180;56727;47.188;8.840;2023-08-30T04:16:53;96381.40;;;18.40
69530;BMP180;56727;47.188;8.840;2023-08-30T04:19:19;96383.80;;;18.40
69530;BMP180;56727;47.188;8.840;2023-08-30T04:21:46;96383.20;;;18.40
69530;BMP180;56727;47.188;8.840;2023-08-30T04:24:12;96379.00;;;18.36
69530;BMP180;56727;47.188;8.840;2023-08-30T04:26:41;96377.40;;;18.40
69530;BMP180;56727;47.188;8.840;2023-08-30T04:29:08;96381.60;;;18.42
69530;BMP180;56727;47.188;8.840;2023-08-30T04:31:35;96382.40;;;18.40
69530;BMP180;56727;47.188;8.840;2023-08-30T04:34:01;96380.40;;;18.46
69530;BMP180;56727;47.188;8.840;2023-08-30T04:36:28;96382.60;;;18.50
69530;BMP180;56727;47.188;8.840;2023-08-30T04:38:54;96380.60;;;18.52
69530;BMP180;56727;47.188;8.840;2023-08-30T04:41:21;96380.00;;;18.50
69530;BMP180;56727;47.188;8.840;2023-08-30T04:43:47;96376.60;;;18.50
69530;BMP180;56727;47.188;8.840;2023-08-30T04:46:14;96380.80;;;18.50
69530;BMP180;56727;47.188;8.840;2023-08-30T04:48:40;96378.20;;;18.50
69530;BMP180;56727;47.188;8.840;2023-08-30T04:51:06;96379.40;;;18.48
69530;BMP180;56727;47.188;8.840;2023-08-30T04:53:33;96385.00;;;18.50
69530;BMP180;56727;47.188;8.840;2023-08-30T04:56:00;96388.20;;;18.44
69530;BMP180;56727;47.188;8.840;2023-08-30T04:58:26;96389.40;;;18.40
69530;BMP180;56727;47.188;8.840;2023-08-30T05:00:56;96389.60;;;18.40
69530;BMP180;56727;47.188;8.840;2023-08-30T05:03:23;96389.40;;;18.52
69530;BMP180;56727;47.188;8.840;2023-08-30T05:05:49;96389.40;;;19.48
69530;BMP180;56727;47.188;8.840;2023-08-30T05:08:16;96387.00;;;20.04
69530;BMP180;56727;47.188;8.840;2023-08-30T05:10:42;96385.00;;;20.06
69530;BMP180;56727;47.188;8.840;2023-08-30T05:13:09;96388.00;;;19.30
69530;BMP180;56727;47.188;8.840;2023-08-30T05:15:36;96384.60;;;18.90
69530;BMP180;56727;47.188;8.840;2023-08-30T05:18:04;96380.40;;;18.80
69530;BMP180;56727;47.188;8.840;2023-08-30T05:20:30;96379.20;;;18.84
69530;BMP180;56727;47.188;8.840;2023-08-30T05:22:57;96374.60;;;19.74
69530;BMP180;56727;47.188;8.840;2023-08-30T05:25:24;96367.80;;;20.26
69530;BMP180;56727;47.188;8.840;2023-08-30T05:27:50;96365.80;;;20.46
69530;BMP180;56727;47.188;8.840;2023-08-30T05:30:17;96361.00;;;20.60
69530;BMP180;56727;47.188;8.840;2023-08-30T05:32:43;96365.00;;;20.68
69530;BMP180;56727;47.188;8.840;2023-08-30T05:35:10;96360.40;;;20.74
69530;BMP180;56727;47.188;8.840;2023-08-30T05:37:37;96358.80;;;20.74
69530;BMP180;56727;47.188;8.840;2023-08-30T05:40:05;96356.00;;;20.50
69530;BMP180;56727;47.188;8.840;2023-08-30T05:42:32;96359.60;;;19.78
69530;BMP180;56727;47.188;8.840;2023-08-30T05:44:58;96359.20;;;20.42
69530;BMP180;56727;47.188;8.840;2023-08-30T05:47:25;96359.00;;;20.84
69530;BMP180;56727;47.188;8.840;2023-08-30T05:49:51;96359.20;;;20.58
69530;BMP180;56727;47.188;8.840;2023-08-30T05:52:18;96367.60;;;20.00
69530;BMP180;56727;47.188;8.840;2023-08-30T05:54:45;96369.00;;;19.70
69530;BMP180;56727;47.188;8.840;2023-08-30T05:57:11;96376.20;;;19.56
69530;BMP180;56727;47.188;8.840;2023-08-30T05:59:38;96371.60;;;19.48
69530;BMP180;56727;47.188;8.840;2023-08-30T06:02:05;96380.40;;;19.42
69530;BMP180;56727;47.188;8.840;2023-08-30T06:04:32;96384.00;;;19.42
69530;BMP180;56727;47.188;8.840;2023-08-30T06:06:58;96383.60;;;19.40
69530;BMP180;56727;47.188;8.840;2023-08-30T06:09:25;96383.60;;;19.40
69530;BMP180;56727;47.188;8.840;2023-08-30T06:11:51;96390.20;;;19.40
69530;BMP180;56727;47.188;8.840;2023-08-30T06:14:18;96385.20;;;19.40
69530;BMP180;56727;47.188;8.840;2023-08-30T06:16:44;96387.00;;;19.38
69530;BMP180;56727;47.188;8.840;2023-08-30T06:19:11;96385.00;;;19.34
69530;BMP180;56727;47.188;8.840;2023-08-30T06:21:37;96378.00;;;19.40
69530;BMP180;56727;47.188;8.840;2023-08-30T06:24:04;96385.20;;;19.40
69530;BMP180;56727;47.188;8.840;2023-08-30T06:26:31;96387.40;;;19.46
69530;BMP180;56727;47.188;8.840;2023-08-30T06:28:58;96390.20;;;19.46
69530;BMP180;56727;47.188;8.840;2023-08-30T06:31:24;96388.60;;;19.48
69530;BMP180;56727;47.188;8.840;2023-08-30T06:33:52;96388.80;;;19.50
69530;BMP180;56727;47.188;8.840;2023-08-30T06:36:19;96390.60;;;19.52
69530;BMP180;56727;47.188;8.840;2023-08-30T06:38:49;96390.00;;;19.58
69530;BMP180;56727;47.188;8.840;2023-08-30T06:41:16;96389.60;;;19.64
69530;BMP180;56727;47.188;8.840;2023-08-30T06:43:42;96385.80;;;20.68
69530;BMP180;56727;47.188;8.840;2023-08-30T06:46:09;96386.60;;;21.26
69530;BMP180;56727;47.188;8.840;2023-08-30T06:48:35;96387.40;;;21.54
69530;BMP180;56727;47.188;8.840;2023-08-30T06:51:02;96387.60;;;21.72
69530;BMP180;56727;47.188;8.840;2023-08-30T06:53:29;96384.20;;;21.84
69530;BMP180;56727;47.188;8.840;2023-08-30T06:56:02;96389.00;;;21.90
69530;BMP180;56727;47.188;8.840;2023-08-30T06:58:29;96390.40;;;21.00
69530;BMP180;56727;47.188;8.840;2023-08-30T07:00:57;96390.40;;;20.60
69530;BMP180;56727;47.188;8.840;2023-08-30T07:03:24;96386.60;;;20.48
69530;BMP180;56727;47.188;8.840;2023-08-30T07:05:52;96388.00;;;21.48
69530;BMP180;56727;47.188;8.840;2023-08-30T07:08:18;96385.00;;;22.06
69530;BMP180;56727;47.188;8.840;2023-08-30T07:10:46;96383.40;;;22.28
69530;BMP180;56727;47.188;8.840;2023-08-30T07:13:12;96389.80;;;21.50
69530;BMP180;56727;47.188;8.840;2023-08-30T07:15:40;96387.00;;;21.18
69530;BMP180;56727;47.188;8.840;2023-08-30T07:18:10;96389.40;;;21.10
69530;BMP180;56727;47.188;8.840;2023-08-30T07:20:39;96387.00;;;21.08
69530;BMP180;56727;47.188;8.840;2023-08-30T07:23:05;96388.20;;;21.08
69530;BMP180;56727;47.188;8.840;2023-08-30T07:25:32;96385.60;;;21.08
69530;BMP180;56727;47.188;8.840;2023-08-30T07:28:00;96382.00;;;21.10
69530;BMP180;56727;47.188;8.840;2023-08-30T07:30:26;96378.20;;;21.20
69530;BMP180;56727;47.188;8.840;2023-08-30T07:32:53;96382.60;;;21.24
69530;BMP180;56727;47.188;8.840;2023-08-30T07:35:20;96383.20;;;21.34
69530;BMP180;56727;47.188;8.840;2023-08-30T07:37:46;96381.80;;;22.48
69530;BMP180;56727;47.188;8.840;2023-08-30T07:40:13;96376.00;;;23.14
69530;BMP180;56727;47.188;8.840;2023-08-30T07:42:39;96373.80;;;23.48
69530;BMP180;56727;47.188;8.840;2023-08-30T07:45:07;96375.80;;;23.74
69530;BMP180;56727;47.188;8.840;2023-08-30T07:47:35;96377.60;;;23.28
69530;BMP180;56727;47.188;8.840;2023-08-30T07:50:04;96375.60;;;23.30
69530;BMP180;56727;47.188;8.840;2023-08-30T07:52:31;96372.40;;;23.12
69530;BMP180;56727;47.188;8.840;2023-08-30T07:54:58;96374.00;;;23.30
69530;BMP180;56727;47.188;8.840;2023-08-30T07:57:24;96371.80;;;23.64
69530;BMP180;56727;47.188;8.840;2023-08-30T07:59:51;96370.20;;;24.26
69530;BMP180;56727;47.188;8.840;2023-08-30T08:02:17;96366.40;;;24.78
69530;BMP180;56727;47.188;8.840;2023-08-30T08:04:44;96367.20;;;25.34
69530;BMP180;56727;47.188;8.840;2023-08-30T08:07:11;96365.80;;;26.14
69530;BMP180;56727;47.188;8.840;2023-08-30T08:09:37;96370.60;;;26.70
69530;BMP180;56727;47.188;8.840;2023-08-30T08:12:05;96369.40;;;27.10
69530;BMP180;56727;47.188;8.840;2023-08-30T08:14:32;96369.00;;;27.46
69530;BMP180;56727;47.188;8.840;2023-08-30T08:16:58;96369.20;;;28.00
69530;BMP180;56727;47.188;8.840;2023-08-30T08:19:25;96365.80;;;28.38
69530;BMP180;56727;47.188;8.840;2023-08-30T08:21:52;96369.20;;;28.78
69530;BMP180;56727;47.188;8.840;2023-08-30T08:24:21;96371.20;;;29.30
69530;BMP180;56727;47.188;8.840;2023-08-30T08:26:48;96373.60;;;30.46
69530;BMP180;56727;47.188;8.840;2023-08-30T08:29:15;96381.00;;;30.00
69530;BMP180;56727;47.188;8.840;2023-08-30T08:31:41;96382.60;;;29.60
69530;BMP180;56727;47.188;8.840;2023-08-30T08:34:13;96381.60;;;29.30
69530;BMP180;56727;47.188;8.840;2023-08-30T08:36:41;96377.60;;;29.00
69530;BMP180;56727;47.188;8.840;2023-08-30T08:39:08;96376.20;;;28.78
69530;BMP180;56727;47.188;8.840;2023-08-30T08:41:43;96379.20;;;28.50
69530;BMP180;56727;47.188;8.840;2023-08-30T08:44:12;96381.00;;;28.32
69530;BMP180;56727;47.188;8.840;2023-08-30T08:46:41;96380.80;;;29.08
69530;BMP180;56727;47.188;8.840;2023-08-30T08:49:12;96380.60;;;28.70
69530;BMP180;56727;47.188;8.840;2023-08-30T08:51:44;96382.60;;;28.54
69530;BMP180;56727;47.188;8.840;2023-08-30T08:54:12;96382.40;;;28.60
69530;BMP180;56727;47.188;8.840;2023-08-30T08:56:40;96378.60;;;28.90
69530;BMP180;56727;47.188;8.840;2023-08-30T08:59:06;96378.20;;;29.10
69530;BMP180;56727;47.188;8.840;2023-08-30T09:01:35;96376.80;;;29.26
69530;BMP180;56727;47.188;8.840;2023-08-30T09:04:07;96379.40;;;28.52
69530;BMP180;56727;47.188;8.840;2023-08-30T09:06:36;96379.20;;;28.00
69530;BMP180;56727;47.188;8.840;2023-08-30T09:09:04;96381.80;;;27.88
69530;BMP180;56727;47.188;8.840;2023-08-30T09:11:32;96382.40;;;27.84
69530;BMP180;56727;47.188;8.840;2023-08-30T09:13:59;96385.40;;;28.88
69530;BMP180;56727;47.188;8.840;2023-08-30T09:16:26;96389.40;;;28.50
69530;BMP180;56727;47.188;8.840;2023-08-30T09:19:04;96395.60;;;28.18
69530;BMP180;56727;47.188;8.840;2023-08-30T09:21:31;96397.00;;;28.04
69530;BMP180;56727;47.188;8.840;2023-08-30T09:24:02;96397.20;;;28.34
69530;BMP180;56727;47.188;8.840;2023-08-30T09:26:32;96403.20;;;28.00
69530;BMP180;56727;47.188;8.840;2023-08-30T09:29:06;96398.40;;;28.70
69530;BMP180;56727;47.188;8.840;2023-08-30T09:31:38;96402.60;;;28.12
69530;BMP180;56727;47.188;8.840;2023-08-30T09:34:06;96404.00;;;28.86
69530;BMP180;56727;47.188;8.840;2023-08-30T09:36:34;96404.00;;;28.30
69530;BMP180;56727;47.188;8.840;2023-08-30T09:39:12;96402.80;;;27.82
69530;BMP180;56727;47.188;8.840;2023-08-30T09:41:44;96397.40;;;27.82
69530;BMP180;56727;47.188;8.840;2023-08-30T09:44:20;96400.60;;;27.62
69530;BMP180;56727;47.188;8.840;2023-08-30T09:46:54;96399.00;;;28.40
69530;BMP180;56727;47.188;8.840;2023-08-30T09:49:26;96395.60;;;28.60
69530;BMP180;56727;47.188;8.840;2023-08-30T09:51:54;96395.20;;;28.58
69530;BMP180;56727;47.188;8.840;2023-08-30T09:54:24;96396.20;;;27.60
69530;BMP180;56727;47.188;8.840;2023-08-30T09:56:51;96392.80;;;27.20
69530;BMP180;56727;47.188;8.840;2023-08-30T09:59:24;96390.80;;;26.70
69530;BMP180;56727;47.188;8.840;2023-08-30T10:01:52;96393.80;;;26.42
69530;BMP180;56727;47.188;8.840;2023-08-30T10:04:20;96393.80;;;26.20
69530;BMP180;56727;47.188;8.840;2023-08-30T10:06:47;96388.40;;;26.10
69530;BMP180;56727;47.188;8.840;2023-08-30T10:09:15;96386.80;;;26.04
69530;BMP180;56727;47.188;8.840;2023-08-30T10:11:45;96383.00;;;26.96
69530;BMP180;56727;47.188;8.840;2023-08-30T10:14:13;96381.80;;;26.70
69530;BMP180;56727;47.188;8.840;2023-08-30T10:16:48;96379.00;;;26.30
69530;BMP180;56727;47.188;8.840;2023-08-30T10:19:26;96375.60;;;26.12
69530;BMP180;56727;47.188;8.840;2023-08-30T10:22:02;96373.40;;;27.06
69530;BMP180;56727;47.188;8.840;2023-08-30T10:24:37;96371.00;;;27.50
69530;BMP180;56727;47.188;8.840;2023-08-30T10:27:08;96370.60;;;26.70
69530;BMP180;56727;47.188;8.840;2023-08-30T10:29:37;96373.40;;;26.24
69530;BMP180;56727;47.188;8.840;2023-08-30T10:32:05;96365.60;;;26.96
69530;BMP180;56727;47.188;8.840;2023-08-30T10:34:34;96365.20;;;27.36
69530;BMP180;56727;47.188;8.840;2023-08-30T10:37:03;96360.80;;;27.54
69530;BMP180;56727;47.188;8.840;2023-08-30T10:39:40;96356.00;;;27.62
69530;BMP180;56727;47.188;8.840;2023-08-30T10:42:14;96354.80;;;27.66
69530;BMP180;56727;47.188;8.840;2023-08-30T10:44:56;96353.20;;;27.70
69530;BMP180;56727;47.188;8.840;2023-08-30T10:47:34;96354.80;;;27.78
69530;BMP180;56727;47.188;8.840;2023-08-30T10:50:08;96347.80;;;27.86
69530;BMP180;56727;47.188;8.840;2023-08-30T10:52:35;96346.80;;;27.88
69530;BMP180;56727;47.188;8.840;2023-08-30T10:55:11;96348.20;;;27.88
69530;BMP180;56727;47.188;8.840;2023-08-30T10:57:42;96348.40;;;27.58
69530;BMP180;56727;47.188;8.840;2023-08-30T11:00:30;96348.00;;;26.86
69530;BMP180;56727;47.188;8.840;2023-08-30T11:02:57;96345.60;;;27.54
69530;BMP180;56727;47.188;8.840;2023-08-30T11:05:26;96341.20;;;27.78
69530;BMP180;56727;47.188;8.840;2023-08-30T11:07:54;96340.00;;;27.88
69530;BMP180;56727;47.188;8.840;2023-08-30T11:10:21;96339.40;;;27.90
69530;BMP180;56727;47.188;8.840;2023-08-30T11:12:49;96342.40;;;27.40
69530;BMP180;56727;47.188;8.840;2023-08-30T11:15:16;96340.20;;;26.70
69530;BMP180;56727;47.188;8.840;2023-08-30T11:17:43;96340.80;;;26.58
69530;BMP180;56727;47.188;8.840;2023-08-30T11:20:12;96341.60;;;27.26
69530;BMP180;56727;47.188;8.840;2023-08-30T11:22:42;96333.40;;;27.56
69530;BMP180;56727;47.188;8.840;2023-08-30T11:25:12;96336.60;;;26.80
69530;BMP180;56727;47.188;8.840;2023-08-30T11:27:39;96336.40;;;26.30
69530;BMP180;56727;47.188;8.840;2023-08-30T11:30:08;96331.80;;;27.06
69530;BMP180;56727;47.188;8.840;2023-08-30T11:32:40;96332.60;;;27.20
69530;BMP180;56727;47.188;8.840;2023-08-30T11:35:09;96332.00;;;27.44
69530;BMP180;56727;47.188;8.840;2023-08-30T11:37:35;96330.60;;;27.58
69530;BMP180;56727;47.188;8.840;2023-08-30T11:40:03;96329.20;;;26.70
69530;BMP180;56727;47.188;8.840;2023-08-30T11:42:32;96328.80;;;26.22
69530;BMP180;56727;47.188;8.840;2023-08-30T11:44:59;96319.80;;;26.96
69530;BMP180;56727;47.188;8.840;2023-08-30T11:47:26;96324.60;;;27.04
69530;BMP180;56727;47.188;8.840;2023-08-30T11:49:56;96325.80;;;26.32
69530;BMP180;56727;47.188;8.840;2023-08-30T11:52:25;96325.60;;;27.02
69530;BMP180;56727;47.188;8.840;2023-08-30T11:54:53;96325.60;;;27.40
69530;BMP180;56727;47.188;8.840;2023-08-30T11:57:20;96324.40;;;27.56
69530;BMP180;56727;47.188;8.840;2023-08-30T11:59:49;96327.00;;;27.60
69530;BMP180;56727;47.188;8.840;2023-08-30T12:02:17;96327.20;;;27.26
69530;BMP180;56727;47.188;8.840;2023-08-30T12:04:47;96327.80;;;26.40
69530;BMP180;56727;47.188;8.840;2023-08-30T12:07:26;96330.20;;;26.00
69530;BMP180;56727;47.188;8.840;2023-08-30T12:10:07;96333.60;;;25.84
69530;BMP180;56727;47.188;8.840;2023-08-30T12:12:34;96331.80;;;26.86
69530;BMP180;56727;47.188;8.840;2023-08-30T12:15:13;96336.40;;;26.44
69530;BMP180;56727;47.188;8.840;2023-08-30T12:17:41;96337.60;;;26.00
69530;BMP180;56727;47.188;8.840;2023-08-30T12:20:16;96339.80;;;26.06
69530;BMP180;56727;47.188;8.840;2023-08-30T12:22:50;96342.80;;;25.86
69530;BMP180;56727;47.188;8.840;2023-08-30T12:25:22;96333.80;;;26.60
69530;BMP180;56727;47.188;8.840;2023-08-30T12:27:53;96338.80;;;26.10
69530;BMP180;56727;47.188;8.840;2023-08-30T12:30:19;96336.00;;;25.80
69530;BMP180;56727;47.188;8.840;2023-08-30T12:32:47;96336.80;;;25.64
69530;BMP180;56727;47.188;8.840;2023-08-30T12:35:14;96333.60;;;25.56
69530;BMP180;56727;47.188;8.840;2023-08-30T12:37:41;96333.40;;;25.54
69530;BMP180;56727;47.188;8.840;2023-08-30T12:40:08;96331.60;;;25.58
69530;BMP180;56727;47.188;8.840;2023-08-30T12:42:35;96331.60;;;25.60
69530;BMP180;56727;47.188;8.840;2023-08-30T12:45:03;96327.40;;;25.58
69530;BMP180;56727;47.188;8.840;2023-08-30T12:47:30;96331.40;;;25.60
69530;BMP180;56727;47.188;8.840;2023-08-30T12:49:56;96331.20;;;26.60
69530;BMP180;56727;47.188;8.840;2023-08-30T12:52:23;96328.80;;;27.16
69530;BMP180;56727;47.188;8.840;2023-08-30T12:54:49;96325.80;;;27.40
69530;BMP180;56727;47.188;8.840;2023-08-30T12:57:18;96327.40;;;27.56
69530;BMP180;56727;47.188;8.840;2023-08-30T12:59:44;96328.80;;;27.64
69530;BMP180;56727;47.188;8.840;2023-08-30T13:02:11;96329.40;;;27.68
69530;BMP180;56727;47.188;8.840;2023-08-30T13:04:37;96327.40;;;26.76
69530;BMP180;56727;47.188;8.840;2023-08-30T13:07:05;96333.00;;;26.20
69530;BMP180;56727;47.188;8.840;2023-08-30T13:09:31;96334.20;;;26.00
69530;BMP180;56727;47.188;8.840;2023-08-30T13:11:58;96331.40;;;25.82
69530;BMP180;56727;47.188;8.840;2023-08-30T13:14:25;96334.00;;;25.78
69530;BMP180;56727;47.188;8.840;2023-08-30T13:16:51;96330.60;;;25.70
69530;BMP180;56727;47.188;8.840;2023-08-30T13:19:18;96324.60;;;25.70
69530;BMP180;56727;47.188;8.840;2023-08-30T13:21:44;96322.60;;;25.70
69530;BMP180;56727;47.188;8.840;2023-08-30T13:24:11;96323.60;;;25.70
69530;BMP180;56727;47.188;8.840;2023-08-30T13:26:37;96326.40;;;25.70
69530;BMP180;56727;47.188;8.840;2023-08-30T13:29:04;96319.60;;;25.70
69530;BMP180;56727;47.188;8.840;2023-08-30T13:31:30;96315.60;;;25.76
69530;BMP180;56727;47.188;8.840;2023-08-30T13:33:57;96313.80;;;25.80
69530;BMP180;56727;47.188;8.840;2023-08-30T13:36:24;96308.20;;;25.84
69530;BMP180;56727;47.188;8.840;2023-08-30T13:38:51;96301.60;;;25.90
69530;BMP180;56727;47.188;8.840;2023-08-30T13:41:17;96302.20;;;25.90
69530;BMP180;56727;47.188;8.840;2023-08-30T13:43:44;96304.60;;;26.00
69530;BMP180;56727;47.188;8.840;2023-08-30T13:46:10;96301.60;;;26.06
69530;BMP180;56727;47.188;8.840;2023-08-30T13:48:37;96300.00;;;26.04
69530;BMP180;56727;47.188;8.840;2023-08-30T13:51:03;96299.80;;;26.04
69530;BMP180;56727;47.188;8.840;2023-08-30T13:53:30;96298.80;;;26.10
69530;BMP180;56727;47.188;8.840;2023-08-30T13:55:56;96303.40;;;26.02
69530;BMP180;56727;47.188;8.840;2023-08-30T13:58:23;96299.80;;;26.00
69530;BMP180;56727;47.188;8.840;2023-08-30T14:00:49;96303.00;;;26.00
69530;BMP180;56727;47.188;8.840;2023-08-30T14:03:16;96296.00;;;25.90
69530;BMP180;56727;47.188;8.840;2023-08-30T14:05:44;96301.00;;;25.90
69530;BMP180;56727;47.188;8.840;2023-08-30T14:08:10;96301.80;;;25.92
69530;BMP180;56727;47.188;8.840;2023-08-30T14:10:37;96303.20;;;26.86
69530;BMP180;56727;47.188;8.840;2023-08-30T14:13:04;96310.00;;;26.36
69530;BMP180;56727;47.188;8.840;2023-08-30T14:15:31;96311.60;;;25.90
69530;BMP180;56727;47.188;8.840;2023-08-30T14:17:58;96310.60;;;25.70